Time;durP1;ratioP1;P1;durP2;ratioP2;P2;SDS_P1;SDS_P2;PMS_P1;PMS_P2;Temp;Humidity;BMP_temperature;BMP_pressure;BME280_temperature;BME280_humidity;BME280_pressure;Samples;Min_cycle;Max_cycle;Signal;HPM_P1;HPM_P2
2023/08/20 00:02:25;;;;;;;8.63;5.55;;;;;;;22.19;100.00;101103.06;5185864;28;20423;-76
2023/08/20 00:04:57;;;;;;;8.25;5.47;;;;;;;22.28;100.00;101107.72;5187662;28;20434;-75
2023/08/20 00:07:27;;;;;;;9.45;4.95;;;;;;;22.31;100.00;101107.47;5189944;28;20033;-75
2023/08/20 00:09:58;;;;;;;10.68;5.65;;;;;;;22.17;100.00;101120.97;5190598;28;20022;-75
2023/08/20 00:12:28;;;;;;;10.65;6.80;;;;;;;22.20;100.00;101120.75;5190529;28;20507;-75
2023/08/20 00:15:06;;;;;;;10.98;5.80;;;;;;;22.19;100.00;101124.38;5188161;28;20037;-76
2023/08/20 00:17:39;;;;;;;13.75;6.30;;;;;;;22.19;100.00;101130.56;5190202;28;20029;-75
2023/08/20 00:20:12;;;;;;;12.10;6.85;;;;;;;22.28;100.00;101127.19;5171504;28;20060;-74
2023/08/20 00:22:45;;;;;;;10.90;5.47;;;;;;;22.24;100.00;101117.75;5186018;28;20045;-75
2023/08/20 00:25:17;;;;;;;9.23;6.82;;;;;;;22.33;100.00;101130.38;5187611;28;20060;-75
2023/08/20 00:27:47;;;;;;;16.13;9.70;;;;;;;22.53;100.00;101135.09;5186876;28;20241;-75
2023/08/20 00:30:17;;;;;;;13.50;9.05;;;;;;;22.62;100.00;101138.88;5189956;28;20499;-75
2023/08/20 00:32:48;;;;;;;17.25;9.57;;;;;;;22.73;100.00;101136.25;5184562;28;20033;-73
2023/08/20 00:35:18;;;;;;;15.15;10.07;;;;;;;22.89;100.00;101149.13;5172829;28;20030;-74
2023/08/20 00:37:49;;;;;;;16.20;10.70;;;;;;;22.93;100.00;101144.38;5190831;28;20029;-75
2023/08/20 00:40:20;;;;;;;19.50;10.95;;;;;;;22.95;100.00;101145.97;5187691;28;20136;-74
2023/08/20 00:42:50;;;;;;;14.07;10.10;;;;;;;22.90;100.00;101145.50;5177853;28;20272;-74
2023/08/20 00:45:20;;;;;;;15.82;10.63;;;;;;;22.93;100.00;101150.59;5185514;28;20021;-75
2023/08/20 00:47:51;;;;;;;16.77;11.30;;;;;;;22.97;100.00;101146.69;5187821;28;20091;-75
2023/08/20 00:50:22;;;;;;;19.30;11.18;;;;;;;22.91;100.00;101157.84;5191087;28;20026;-75
2023/08/20 00:52:52;;;;;;;20.70;11.50;;;;;;;22.93;100.00;101160.38;5186335;28;20026;-75
2023/08/20 00:55:23;;;;;;;15.95;11.13;;;;;;;22.99;100.00;101154.59;5186123;28;20017;-75
2023/08/20 00:57:53;;;;;;;14.80;10.93;;;;;;;22.94;100.00;101157.63;5202467;22;20056;-74
2023/08/20 01:00:24;;;;;;;14.57;11.30;;;;;;;22.92;100.00;101151.56;5235023;28;20043;-74
2023/08/20 01:02:54;;;;;;;17.50;11.35;;;;;;;22.85;100.00;101152.97;5234869;28;20046;-74
2023/08/20 01:05:24;;;;;;;19.20;11.68;;;;;;;22.87;100.00;101150.22;5218708;28;20028;-74
2023/08/20 01:08:04;;;;;;;19.38;11.45;;;;;;;22.86;100.00;101148.50;5236519;28;20296;-74
2023/08/20 01:10:52;;;;;;;15.23;11.52;;;;;;;22.67;100.00;101157.06;5198658;28;20035;-74
2023/08/20 01:13:23;;;;;;;17.38;11.40;;;;;;;22.65;100.00;101150.16;5202899;28;20553;-74
2023/08/20 01:15:53;;;;;;;16.70;11.23;;;;;;;22.69;100.00;101154.28;5218362;28;20035;-74
2023/08/20 01:18:25;;;;;;;16.65;11.35;;;;;;;22.68;100.00;101145.41;5219472;28;20308;-74
2023/08/20 01:21:00;;;;;;;18.52;11.77;;;;;;;22.69;100.00;101140.94;5201031;28;20052;-74
2023/08/20 01:23:48;;;;;;;;;;;;;;;22.66;100.00;101151.00;5213880;28;20024;-74
2023/08/20 01:26:59;;;;;;;15.90;10.85;;;;;;;22.59;100.00;101150.59;5200591;28;19944;-74
2023/08/20 01:29:31;;;;;;;18.70;12.13;;;;;;;22.62;100.00;101154.88;5220547;28;20497;-74
2023/08/20 01:32:04;;;;;;;19.80;11.85;;;;;;;22.66;100.00;101167.84;5202061;28;20087;-74
2023/08/20 01:34:34;;;;;;;17.52;11.70;;;;;;;22.75;100.00;101172.47;5216237;28;20039;-74
2023/08/20 01:37:04;;;;;;;17.45;11.82;;;;;;;22.79;100.00;101165.91;5218642;28;20037;-74
2023/08/20 01:39:35;;;;;;;19.67;12.13;;;;;;;22.74;100.00;101170.75;5217880;28;20084;-74
2023/08/20 01:42:06;;;;;;;19.25;11.63;;;;;;;22.74;100.00;101171.63;5200143;28;20040;-74
2023/08/20 01:44:36;;;;;;;18.70;11.02;;;;;;;22.78;100.00;101174.88;5202075;28;20024;-74
2023/08/20 01:47:06;;;;;;;17.88;11.73;;;;;;;22.73;100.00;101177.94;5221084;28;21558;-74
2023/08/20 01:49:37;;;;;;;16.25;10.82;;;;;;;22.68;100.00;101184.56;5217745;28;20106;-75
2023/08/20 01:52:07;;;;;;;18.65;11.80;;;;;;;22.64;100.00;101190.25;5200790;28;20029;-75
2023/08/20 01:54:37;;;;;;;16.75;11.52;;;;;;;22.69;100.00;101195.09;5198465;28;20031;-74
2023/08/20 01:57:07;;;;;;;17.83;11.38;;;;;;;22.74;100.00;101184.09;5200211;28;20086;-74
2023/08/20 01:59:38;;;;;;;17.30;11.80;;;;;;;22.75;100.00;101176.00;5199738;28;20465;-74
2023/08/20 02:02:08;;;;;;;13.90;10.32;;;;;;;22.73;100.00;101169.94;5203516;28;20306;-74
2023/08/20 02:04:39;;;;;;;18.33;10.90;;;;;;;22.64;100.00;101168.91;5201888;28;20387;-75
2023/08/20 02:07:09;;;;;;;19.75;11.27;;;;;;;22.70;100.00;101175.47;5222732;28;20033;-74
2023/08/20 02:09:39;;;;;;;17.73;11.35;;;;;;;22.63;100.00;101183.22;5223600;28;20024;-75
2023/08/20 02:12:10;;;;;;;18.88;11.02;;;;;;;22.56;100.00;101189.97;5221721;28;20479;-74
2023/08/20 02:14:40;;;;;;;21.40;12.02;;;;;;;22.51;100.00;101173.47;5217423;28;20159;-74
2023/08/20 02:17:12;;;;;;;17.77;11.90;;;;;;;22.50;100.00;101180.63;5199547;28;20131;-73
2023/08/20 02:19:42;;;;;;;20.80;11.25;;;;;;;22.60;100.00;101172.78;5218028;28;20029;-74
2023/08/20 02:22:12;;;;;;;16.75;11.45;;;;;;;22.54;100.00;101163.44;5201849;28;20397;-75
2023/08/20 02:24:43;;;;;;;17.75;10.70;;;;;;;22.57;100.00;101178.34;5220311;28;20025;-74
2023/08/20 02:27:13;;;;;;;16.15;10.57;;;;;;;22.54;100.00;101179.44;5218885;28;20089;-74
2023/08/20 02:29:45;;;;;;;16.55;10.93;;;;;;;22.55;100.00;101167.78;5199712;28;20039;-74
2023/08/20 02:32:15;;;;;;;18.15;11.02;;;;;;;22.48;100.00;101171.03;5220769;28;20040;-74
2023/08/20 02:34:50;;;;;;;20.23;11.03;;;;;;;22.42;100.00;101177.66;5199887;28;20037;-74
2023/08/20 02:37:21;;;;;;;18.35;11.70;;;;;;;22.46;100.00;101176.47;5223621;28;20301;-73
2023/08/20 02:39:51;;;;;;;17.73;11.32;;;;;;;22.49;100.00;101175.41;5219199;28;20033;-74
2023/08/20 02:42:21;;;;;;;17.27;10.90;;;;;;;22.34;100.00;101177.38;5221041;28;20025;-73
2023/08/20 02:44:52;;;;;;;18.70;11.48;;;;;;;22.29;100.00;101174.19;5221212;28;20086;-74
2023/08/20 02:47:22;;;;;;;17.27;11.55;;;;;;;22.18;100.00;101167.94;5218913;28;20028;-74
2023/08/20 02:49:52;;;;;;;15.38;10.90;;;;;;;22.14;100.00;101170.00;5201215;28;20035;-74
2023/08/20 02:52:22;;;;;;;18.73;12.07;;;;;;;22.06;100.00;101169.72;5218586;28;20415;-74
2023/08/20 02:54:53;;;;;;;18.35;10.50;;;;;;;22.00;100.00;101175.50;5219946;28;20032;-74
2023/08/20 02:57:23;;;;;;;20.80;12.50;;;;;;;21.97;100.00;101177.53;5222149;28;20488;-73
2023/08/20 02:59:53;;;;;;;16.77;10.50;;;;;;;21.87;100.00;101172.00;5228821;28;20282;-74
2023/08/20 03:02:24;;;;;;;16.60;10.00;;;;;;;21.82;100.00;101183.94;5224913;28;20611;-74
2023/08/20 03:04:55;;;;;;;15.73;10.20;;;;;;;21.73;100.00;101180.13;5227145;28;20286;-74
2023/08/20 03:07:26;;;;;;;15.68;10.23;;;;;;;21.74;100.00;101189.81;5208795;28;20024;-74
2023/08/20 03:09:56;;;;;;;16.38;10.48;;;;;;;21.73;100.00;101181.97;5226025;28;20391;-74
2023/08/20 03:12:26;;;;;;;17.15;10.02;;;;;;;21.74;100.00;101181.84;5224988;28;20100;-73
2023/08/20 03:14:57;;;;;;;13.70;9.07;;;;;;;21.68;100.00;101179.63;5210287;28;20393;-74
2023/08/20 03:17:28;;;;;;;12.18;9.85;;;;;;;21.57;100.00;101189.31;5224456;28;20036;-74
2023/08/20 03:20:00;;;;;;;14.18;9.45;;;;;;;21.49;100.00;101192.50;5227024;28;20020;-74
2023/08/20 03:22:30;;;;;;;16.33;9.90;;;;;;;21.46;100.00;101192.72;5225516;28;20029;-74
2023/08/20 03:25:01;;;;;;;14.35;10.27;;;;;;;21.50;100.00;101196.00;5227913;28;20016;-74
2023/08/20 03:27:31;;;;;;;14.32;10.18;;;;;;;21.31;100.00;101196.47;5207013;28;20049;-71
2023/08/20 03:30:03;;;;;;;14.90;9.60;;;;;;;21.36;100.00;101198.78;5227716;28;20033;-72
2023/08/20 03:32:34;;;;;;;15.35;9.05;;;;;;;21.28;100.00;101209.97;5225032;28;20060;-71
2023/08/20 03:35:04;;;;;;;14.00;8.37;;;;;;;21.18;100.00;101205.38;5229045;28;20528;-72
2023/08/20 03:37:35;;;;;;;10.80;7.97;;;;;;;21.14;100.00;101204.75;5227286;28;20287;-72
2023/08/20 03:40:06;;;;;;;16.50;8.48;;;;;;;21.12;100.00;101201.34;5213268;28;20036;-72
2023/08/20 03:42:36;;;;;;;15.15;9.60;;;;;;;21.09;100.00;101198.06;5200283;28;20558;-70
2023/08/20 03:45:06;;;;;;;19.63;10.35;;;;;;;21.09;100.00;101200.72;5219436;28;20052;-72
2023/08/20 03:47:37;;;;;;;18.13;10.15;;;;;;;21.15;100.00;101202.94;5204386;28;20057;-72
2023/08/20 03:50:07;;;;;;;14.93;10.70;;;;;;;21.12;100.00;101203.16;5222037;28;20036;-72
2023/08/20 03:52:39;;;;;;;16.40;9.15;;;;;;;21.07;100.00;101205.28;5198083;28;20675;-72
2023/08/20 03:55:09;;;;;;;16.10;10.15;;;;;;;21.06;100.00;101203.59;5220092;28;20021;-71
2023/08/20 03:57:39;;;;;;;15.52;9.45;;;;;;;21.19;100.00;101204.41;5221788;28;20110;-72
2023/08/20 04:00:12;;;;;;;13.18;9.20;;;;;;;21.13;100.00;101215.50;5200962;28;20048;-72
2023/08/20 04:02:42;;;;;;;15.15;8.77;;;;;;;21.18;100.00;101216.00;5202151;28;20028;-72
2023/08/20 04:05:12;;;;;;;15.07;9.50;;;;;;;21.16;100.00;101216.13;5221803;28;20020;-72
2023/08/20 04:07:42;;;;;;;14.90;7.15;;;;;;;21.02;100.00;101223.34;5199067;28;20071;-72
2023/08/20 04:10:13;;;;;;;10.40;6.88;;;;;;;20.96;100.00;101218.44;5219874;28;20052;-71
2023/08/20 04:12:43;;;;;;;10.05;7.35;;;;;;;20.98;100.00;101221.84;5222297;28;20459;-72
2023/08/20 04:15:13;;;;;;;20.40;10.30;;;;;;;20.90;100.00;101213.56;5223833;28;20024;-72
2023/08/20 04:17:44;;;;;;;16.77;10.73;;;;;;;20.89;100.00;101233.94;5222425;28;20290;-72
2023/08/20 04:20:15;;;;;;;16.52;11.32;;;;;;;20.80;100.00;101233.69;5221804;28;20150;-72
2023/08/20 04:22:45;;;;;;;14.98;10.75;;;;;;;20.77;100.00;101231.25;5218387;28;20043;-71
2023/08/20 04:25:16;;;;;;;13.00;9.13;;;;;;;20.74;100.00;101234.13;5220849;28;20029;-72
2023/08/20 04:27:46;;;;;;;11.75;8.23;;;;;;;20.84;100.00;101238.75;5224057;28;20035;-72
2023/08/20 04:30:16;;;;;;;11.82;8.45;;;;;;;20.85;100.00;101243.09;5222059;28;20017;-72
2023/08/20 04:32:47;;;;;;;13.48;9.30;;;;;;;20.84;100.00;101244.06;5223389;28;20264;-72
2023/08/20 04:35:17;;;;;;;12.13;7.97;;;;;;;20.77;100.00;101245.41;5221397;28;20021;-72
2023/08/20 04:37:47;;;;;;;14.32;8.43;;;;;;;20.82;100.00;101250.38;5225664;28;20278;-72
2023/08/20 04:40:18;;;;;;;15.00;9.77;;;;;;;20.88;100.00;101255.34;5204639;28;20021;-72
2023/08/20 04:42:49;;;;;;;15.38;9.32;;;;;;;21.00;100.00;101254.50;5200427;28;20141;-70
2023/08/20 04:45:19;;;;;;;13.48;9.40;;;;;;;21.12;100.00;101264.31;5226076;28;20033;-71
2023/08/20 04:47:50;;;;;;;16.63;10.40;;;;;;;21.26;100.00;101264.22;5207996;28;20028;-71
2023/08/20 04:50:20;;;;;;;15.73;9.85;;;;;;;21.35;100.00;101263.56;5225121;28;20031;-71
2023/08/20 04:52:50;;;;;;;17.30;9.65;;;;;;;21.48;100.00;101264.44;5221928;28;20486;-71
2023/08/20 04:55:21;;;;;;;17.38;10.35;;;;;;;21.60;100.00;101269.75;5223328;28;20024;-72
2023/08/20 04:57:51;;;;;;;16.63;9.77;;;;;;;21.65;100.00;101272.13;5221072;28;20667;-72
2023/08/20 05:00:22;;;;;;;16.02;10.13;;;;;;;21.77;100.00;101268.63;5205122;28;20398;-72
2023/08/20 05:02:52;;;;;;;17.17;10.13;;;;;;;21.99;100.00;101277.63;5204402;28;20017;-72
2023/08/20 05:05:23;;;;;;;18.70;10.98;;;;;;;22.14;100.00;101286.31;5222654;28;20021;-72
2023/08/20 05:07:53;;;;;;;17.83;11.32;;;;;;;22.17;100.00;101271.00;5221474;28;20476;-72
2023/08/20 05:10:23;;;;;;;16.25;9.95;;;;;;;22.40;100.00;101275.50;5224236;28;20021;-72
2023/08/20 05:12:54;;;;;;;17.80;10.90;;;;;;;22.63;100.00;101271.16;5226913;28;20029;-72
2023/08/20 05:15:24;;;;;;;12.07;8.82;;;;;;;23.15;100.00;101267.16;5221853;28;20017;-72
2023/08/20 05:17:54;;;;;;;16.40;9.18;;;;;;;23.25;100.00;101258.34;5223934;28;22073;-72
2023/08/20 05:20:24;;;;;;;13.53;8.03;;;;;;;22.92;100.00;101268.03;5224367;28;20530;-72
2023/08/20 05:22:55;;;;;;;11.85;8.23;;;;;;;22.93;100.00;101267.06;5223462;28;21766;-72
2023/08/20 05:25:25;;;;;;;11.98;8.02;;;;;;;22.86;100.00;101257.81;5222034;28;20024;-72
2023/08/20 05:27:55;;;;;;;10.38;7.18;;;;;;;23.09;100.00;101263.13;5222855;28;20686;-72
2023/08/20 05:30:26;;;;;;;14.10;7.63;;;;;;;23.74;100.00;101255.34;5205591;28;20493;-72
2023/08/20 05:32:56;;;;;;;8.77;6.00;;;;;;;24.08;100.00;101268.59;5220388;28;20084;-72
2023/08/20 05:35:26;;;;;;;8.52;6.18;;;;;;;24.04;100.00;101263.66;5224358;28;20017;-72
2023/08/20 05:37:57;;;;;;;8.43;5.95;;;;;;;23.59;100.00;101276.13;5221635;28;20580;-72
2023/08/20 05:40:27;;;;;;;8.23;5.00;;;;;;;23.16;100.00;101283.03;5219551;28;20028;-71
2023/08/20 05:42:57;;;;;;;7.67;5.57;;;;;;;23.59;100.00;101284.13;5223648;28;20677;-72
2023/08/20 05:45:27;;;;;;;9.37;6.80;;;;;;;24.02;100.00;101287.78;5205905;28;20307;-72
2023/08/20 05:47:58;;;;;;;9.65;5.53;;;;;;;23.71;100.00;101293.00;5206119;28;20279;-72
2023/08/20 05:50:28;;;;;;;9.10;6.00;;;;;;;23.28;100.00;101303.47;5223113;28;20029;-71
2023/08/20 05:53:00;;;;;;;10.85;6.88;;;;;;;23.27;100.00;101299.09;5224164;28;20033;-72
2023/08/20 05:55:30;;;;;;;10.90;7.43;;;;;;;23.22;100.00;101305.75;5223549;28;20025;-72
2023/08/20 05:58:01;;;;;;;9.87;6.67;;;;;;;22.85;100.00;101318.28;5222523;28;20406;-72
2023/08/20 06:00:31;;;;;;;13.10;7.90;;;;;;;22.89;100.00;101313.59;5205975;28;20274;-72
2023/08/20 06:03:01;;;;;;;12.88;7.97;;;;;;;23.01;100.00;101313.50;5225556;28;20507;-72
2023/08/20 06:05:32;;;;;;;11.05;7.63;;;;;;;23.31;100.00;101310.38;5209180;28;20024;-72
2023/08/20 06:08:02;;;;;;;12.23;8.38;;;;;;;23.39;100.00;101308.81;5223458;28;20059;-72
2023/08/20 06:10:32;;;;;;;13.05;7.25;;;;;;;23.38;100.00;101308.94;5224949;28;20025;-72
2023/08/20 06:13:03;;;;;;;9.55;7.00;;;;;;;23.42;100.00;101313.94;5224625;28;20028;-72
2023/08/20 06:15:33;;;;;;;12.80;8.35;;;;;;;23.22;100.00;101309.25;5226232;28;20111;-72
2023/08/20 06:18:04;;;;;;;12.97;8.33;;;;;;;23.54;100.00;101304.97;5223789;28;20037;-72
2023/08/20 06:20:34;;;;;;;10.32;7.47;;;;;;;23.62;100.00;101304.38;5225828;28;20286;-72
2023/08/20 06:23:04;;;;;;;12.48;7.70;;;;;;;23.76;100.00;101297.00;5204412;28;20037;-72
2023/08/20 06:25:35;;;;;;;11.90;7.68;;;;;;;23.94;100.00;101292.91;5206316;28;20115;-72
2023/08/20 06:28:05;;;;;;;10.52;6.85;;;;;;;23.83;100.00;101292.91;5224637;28;20028;-72
2023/08/20 06:30:35;;;;;;;11.68;7.03;;;;;;;23.55;100.00;101287.97;5224100;28;20016;-72
2023/08/20 06:33:06;;;;;;;11.18;7.50;;;;;;;23.37;100.00;101286.72;5224581;28;20174;-72
2023/08/20 06:35:37;;;;;;;11.40;6.90;;;;;;;23.82;100.00;101290.31;5224942;28;20462;-72
2023/08/20 06:38:07;;;;;;;11.80;6.43;;;;;;;26.14;100.00;101283.94;5222546;28;20098;-72
2023/08/20 06:40:37;;;;;;;11.05;5.60;;;;;;;26.71;92.42;101276.03;5205929;28;20505;-72
2023/08/20 06:43:08;;;;;;;10.00;5.00;;;;;;;26.08;92.27;101269.25;5205960;28;20028;-72
2023/08/20 06:45:38;;;;;;;8.23;5.47;;;;;;;25.18;96.58;101277.16;5207460;28;20268;-72
2023/08/20 06:48:08;;;;;;;9.45;5.78;;;;;;;26.13;95.71;101274.16;5223629;28;20267;-72
2023/08/20 06:50:41;;;;;;;13.43;6.00;;;;;;;27.97;86.89;101262.97;5225144;28;20234;-72
2023/08/20 06:53:11;;;;;;;7.95;4.88;;;;;;;28.80;81.77;101258.22;5224747;28;20071;-72
2023/08/20 06:55:42;;;;;;;8.53;4.17;;;;;;;29.93;76.10;101255.38;5217025;28;20112;-73
2023/08/20 07:00:51;;;;;;;5.68;3.70;;;;;;;31.30;69.05;101253.69;5242079;28;20078;-76
2023/08/20 07:03:21;;;;;;;6.97;3.57;;;;;;;29.63;72.95;101272.94;5248089;28;20059;-75
2023/08/20 07:05:51;;;;;;;5.53;2.60;;;;;;;31.17;70.97;101260.66;5254280;28;20020;-76
2023/08/20 07:08:22;;;;;;;7.23;3.20;;;;;;;32.29;65.40;101266.63;5235259;28;20674;-74
2023/08/20 07:10:52;;;;;;;7.30;4.00;;;;;;;32.58;66.25;101266.78;5249454;28;20335;-73
2023/08/20 07:13:23;;;;;;;5.07;3.47;;;;;;;34.41;62.07;101277.78;5250201;28;20274;-73
2023/08/20 07:15:54;;;;;;;5.32;2.95;;;;;;;34.44;59.76;101277.38;5252751;28;20043;-73
2023/08/20 07:18:24;;;;;;;6.13;2.55;;;;;;;35.08;61.26;101279.16;5248652;28;20237;-74
2023/08/20 07:20:55;;;;;;;4.43;2.90;;;;;;;33.33;65.78;101274.06;5246656;28;20035;-73
2023/08/20 07:23:26;;;;;;;5.88;3.58;;;;;;;32.91;65.85;101284.53;5244769;28;20285;-73
2023/08/20 07:26:10;;;;;;;6.15;3.05;;;;;;;33.35;65.39;101288.28;5245981;28;20046;-74
2023/08/20 07:28:56;;;;;;;5.18;3.13;;;;;;;33.39;65.60;101274.19;5250512;28;20028;-75
2023/08/20 07:31:31;;;;;;;5.00;2.72;;;;;;;35.47;60.04;101287.66;5256468;28;20106;-72
2023/08/20 07:34:03;;;;;;;5.93;2.35;;;;;;;34.75;61.01;101279.84;5250693;28;20111;-73
2023/08/20 07:36:33;;;;;;;4.68;2.00;;;;;;;34.36;61.55;101290.25;5255578;28;20051;-74
2023/08/20 07:39:03;;;;;;;4.00;2.43;;;;;;;33.76;62.67;101290.44;5248337;28;20099;-73
2023/08/20 07:41:34;;;;;;;9.90;3.30;;;;;;;34.83;60.89;101291.44;5234762;28;20016;-74
2023/08/20 07:44:08;;;;;;;3.53;1.98;;;;;;;35.85;57.45;101278.13;5229791;28;20486;-74
2023/08/20 07:46:38;;;;;;;2.80;1.77;;;;;;;36.04;54.77;101269.22;5254337;28;20055;-75
2023/08/20 07:49:09;;;;;;;3.83;1.90;;;;;;;34.35;58.81;101272.25;5256494;28;20063;-75
2023/08/20 07:51:39;;;;;;;3.33;1.92;;;;;;;36.09;56.34;101270.31;5257451;28;20031;-74
2023/08/20 07:54:09;;;;;;;3.63;2.03;;;;;;;33.75;60.60;101280.59;5248773;28;20033;-75
2023/08/20 07:56:40;;;;;;;4.63;2.00;;;;;;;36.23;55.70;101284.84;5253346;28;20066;-75
2023/08/20 07:59:10;;;;;;;2.43;1.63;;;;;;;35.27;56.18;101290.22;5237672;28;20748;-74
2023/08/20 08:01:40;;;;;;;2.90;1.67;;;;;;;34.03;60.66;101287.03;5258277;28;20036;-74
2023/08/20 08:04:11;;;;;;;5.47;1.80;;;;;;;33.08;60.30;101288.81;5254089;28;20040;-74
2023/08/20 08:06:41;;;;;;;2.57;1.30;;;;;;;34.73;56.68;101274.63;5240125;28;20716;-74
2023/08/20 08:09:19;;;;;;;2.57;1.50;;;;;;;35.87;56.00;101274.16;5256177;28;20803;-74
2023/08/20 08:11:50;;;;;;;4.10;1.75;;;;;;;33.97;58.45;101284.28;5250925;28;20441;-72
2023/08/20 08:14:21;;;;;;;2.40;1.40;;;;;;;36.60;53.89;101277.03;5249109;28;20124;-74
2023/08/20 08:16:51;;;;;;;3.55;1.48;;;;;;;34.14;57.08;101285.75;5235397;28;20032;-74
2023/08/20 08:19:21;;;;;;;3.07;1.73;;;;;;;33.97;57.53;101297.84;5233333;28;20021;-74
2023/08/20 08:21:52;;;;;;;4.67;1.87;;;;;;;35.17;58.26;101297.03;5236967;28;20695;-74
2023/08/20 08:24:22;;;;;;;2.13;1.30;;;;;;;36.74;56.45;101300.56;5239109;28;20266;-72
2023/08/20 08:26:52;;;;;;;3.20;1.58;;;;;;;36.90;55.15;101305.66;5242334;28;20126;-74
2023/08/20 08:29:23;;;;;;;3.83;1.50;;;;;;;36.22;56.17;101305.81;5241671;28;20374;-71
2023/08/20 08:31:53;;;;;;;2.53;1.50;;;;;;;35.54;55.77;101299.44;5234262;28;20035;-74
2023/08/20 08:34:24;;;;;;;2.03;1.35;;;;;;;35.93;58.77;101289.69;5254075;28;20062;-71
2023/08/20 08:36:54;;;;;;;5.80;1.70;;;;;;;33.15;62.79;101281.66;5253268;28;20495;-72
2023/08/20 08:39:24;;;;;;;3.03;1.47;;;;;;;35.10;58.31;101274.34;5252337;28;20035;-72
2023/08/20 08:42:02;;;;;;;3.50;1.73;;;;;;;35.97;55.74;101268.34;5256260;28;20270;-71
2023/08/20 08:44:33;;;;;;;4.70;1.70;;;;;;;35.54;54.29;101272.22;5230923;28;20026;-73
2023/08/20 08:47:04;;;;;;;3.78;1.60;;;;;;;36.56;54.97;101274.94;5228348;28;20063;-73
2023/08/20 08:49:35;;;;;;;6.47;1.50;;;;;;;37.10;52.82;101267.50;5226992;28;20277;-74
2023/08/20 08:52:06;;;;;;;2.93;1.60;;;;;;;35.05;57.24;101272.22;5230554;28;20467;-73
2023/08/20 08:54:36;;;;;;;3.22;1.30;;;;;;;35.14;58.01;101271.03;5231213;28;20945;-73
2023/08/20 08:57:06;;;;;;;2.55;1.33;;;;;;;34.27;57.86;101285.94;5209523;28;21219;-73
2023/08/20 08:59:37;;;;;;;9.13;1.70;;;;;;;33.70;60.89;101283.00;5231811;28;20052;-73
2023/08/20 09:02:09;;;;;;;3.97;1.67;;;;;;;35.20;54.50;101286.63;5227925;28;20032;-73
2023/08/20 09:04:41;;;;;;;2.55;1.50;;;;;;;36.49;53.62;101280.31;5227316;28;20033;-73
2023/08/20 09:07:13;;;;;;;3.53;1.60;;;;;;;35.42;56.08;101284.72;5215694;28;20520;-72
2023/08/20 09:09:45;;;;;;;3.97;1.80;;;;;;;34.45;54.99;101289.94;5231783;28;20078;-73
2023/08/20 09:12:16;;;;;;;2.55;1.50;;;;;;;36.22;53.14;101284.00;5232810;28;20038;-73
2023/08/20 09:14:51;;;;;;;4.80;1.50;;;;;;;36.49;55.12;101282.22;5227731;28;20059;-74
2023/08/20 09:17:25;;;;;;;3.33;1.70;;;;;;;34.17;57.28;101293.53;5230662;28;20025;-73
2023/08/20 09:19:59;;;;;;;2.55;1.40;;;;;;;36.44;54.37;101282.84;5227721;28;20119;-73
2023/08/20 09:22:29;;;;;;;4.70;1.52;;;;;;;34.92;56.14;101284.00;5219573;28;20036;-71
2023/08/20 09:25:01;;;;;;;3.63;1.80;;;;;;;33.34;57.98;101292.03;5213214;28;20113;-71
2023/08/20 09:27:40;;;;;;;3.85;1.50;;;;;;;33.77;59.42;101293.97;5227149;28;20393;-72
2023/08/20 09:30:19;;;;;;;3.45;1.70;;;;;;;33.29;57.98;101294.44;5208254;28;20095;-72
2023/08/20 09:33:03;;;;;;;5.30;1.80;;;;;;;31.55;63.93;101293.19;5234813;28;20120;-71
2023/08/20 09:35:34;;;;;;;2.70;1.33;;;;;;;32.40;62.99;101290.59;5220560;28;20041;-72
2023/08/20 09:38:04;;;;;;;3.95;1.45;;;;;;;32.13;62.89;101277.50;5239155;28;20054;-72
2023/08/20 09:40:35;;;;;;;3.15;1.73;;;;;;;31.84;62.31;101284.56;5238950;28;20037;-72
2023/08/20 09:43:08;;;;;;;3.70;1.70;;;;;;;31.90;59.51;101281.97;5232750;28;20085;-71
2023/08/20 09:45:40;;;;;;;3.55;1.98;;;;;;;31.52;63.81;101279.19;5240983;28;20307;-72
2023/08/20 09:48:13;;;;;;;4.00;1.88;;;;;;;32.29;62.05;101282.88;5204847;28;20047;-72
2023/08/20 09:50:46;;;;;;;5.15;2.13;;;;;;;31.57;61.95;101287.63;5230169;28;20043;-72
2023/08/20 09:53:27;;;;;;;8.45;1.88;;;;;;;31.23;63.17;101274.28;5237413;28;20498;-72
2023/08/20 09:56:12;;;;;;;4.65;2.00;;;;;;;31.56;64.55;101278.66;5233405;28;20402;-72
2023/08/20 09:58:44;;;;;;;4.15;1.83;;;;;;;30.81;65.79;101288.94;5237035;28;20249;-73
2023/08/20 10:01:14;;;;;;;3.03;1.83;;;;;;;30.63;67.61;101282.00;5238701;28;20032;-73
2023/08/20 10:03:48;;;;;;;3.13;1.52;;;;;;;30.74;68.82;101279.00;5244481;28;20478;-73
2023/08/20 10:06:19;;;;;;;3.70;1.88;;;;;;;30.37;68.10;101286.59;5232603;28;20070;-72
2023/08/20 10:08:53;;;;;;;7.13;1.75;;;;;;;30.61;64.41;101284.84;5243867;28;20435;-72
2023/08/20 10:11:24;;;;;;;5.85;1.83;;;;;;;31.30;63.09;101261.81;5242229;28;20119;-71
2023/08/20 10:13:54;;;;;;;5.50;2.25;;;;;;;31.06;62.33;101269.88;5242923;28;20027;-73
2023/08/20 10:16:27;;;;;;;3.17;1.58;;;;;;;30.93;64.40;101268.69;5212346;28;20043;-72
2023/08/20 10:19:02;;;;;;;3.13;1.50;;;;;;;31.16;63.52;101267.88;5232263;28;20454;-73
2023/08/20 10:21:32;;;;;;;4.85;1.90;;;;;;;30.73;63.62;101264.63;5239419;28;20486;-73
2023/08/20 10:24:06;;;;;;;2.83;1.60;;;;;;;30.46;63.36;101269.44;5241307;28;20078;-74
2023/08/20 10:26:36;;;;;;;3.03;1.55;;;;;;;30.23;62.51;101266.50;5234963;28;20486;-73
2023/08/20 10:29:39;;;;;;;3.23;1.40;;;;;;;29.81;64.87;101262.06;5236279;28;20662;-73
2023/08/20 10:32:11;;;;;;;3.15;1.60;;;;;;;30.20;65.71;101257.88;5238687;28;20319;-74
2023/08/20 10:34:51;;;;;;;4.90;1.55;;;;;;;29.61;66.54;101260.59;5243911;28;20383;-74
2023/08/20 10:37:28;;;;;;;3.45;1.60;;;;;;;29.05;65.74;101263.69;5239901;28;20155;-73
2023/08/20 10:39:58;;;;;;;3.92;1.85;;;;;;;29.37;67.66;101255.03;5235399;28;20036;-72
2023/08/20 10:42:29;;;;;;;3.67;1.73;;;;;;;29.44;67.53;101266.88;5240860;28;20055;-71
2023/08/20 10:45:03;;;;;;;2.95;1.80;;;;;;;29.59;64.75;101251.84;5229044;28;20771;-74
2023/08/20 10:47:41;;;;;;;4.70;1.50;;;;;;;29.59;65.00;101259.94;5240758;28;20513;-73
2023/08/20 10:50:15;;;;;;;4.03;1.88;;;;;;;29.30;70.16;101256.66;5242375;28;20281;-74
2023/08/20 10:52:54;;;;;;;3.83;1.90;;;;;;;29.37;65.84;101258.56;5242874;28;20044;-74
2023/08/20 10:55:25;;;;;;;3.20;1.80;;;;;;;29.33;70.14;101259.03;5242048;28;20560;-72
2023/08/20 10:58:02;;;;;;;3.13;1.80;;;;;;;29.16;69.91;101259.91;5240673;28;20069;-73
2023/08/20 11:00:32;;;;;;;2.67;1.60;;;;;;;28.96;67.54;101258.41;5239204;28;20020;-74
2023/08/20 11:03:03;;;;;;;3.47;1.58;;;;;;;29.05;66.40;101252.09;5247337;28;20536;-74
2023/08/20 11:05:34;;;;;;;3.88;1.75;;;;;;;28.80;65.86;101251.00;5241831;28;20024;-74
2023/08/20 11:08:07;;;;;;;3.53;1.88;;;;;;;29.01;66.05;101246.16;5222528;28;20306;-73
2023/08/20 11:10:38;;;;;;;4.38;1.50;;;;;;;29.36;64.60;101250.63;5243061;28;20024;-72
2023/08/20 11:13:08;;;;;;;3.25;1.70;;;;;;;29.35;64.94;101249.78;5245789;28;20198;-73
2023/08/20 11:15:39;;;;;;;2.60;1.50;;;;;;;29.43;64.74;101254.41;5243783;28;20055;-73
2023/08/20 11:18:09;;;;;;;2.45;1.23;;;;;;;29.19;65.17;101252.38;5246537;28;20270;-73
2023/08/20 11:20:40;;;;;;;2.30;1.20;;;;;;;28.98;63.42;101259.09;5243329;28;20094;-73
2023/08/20 11:23:12;;;;;;;4.15;1.63;;;;;;;29.10;61.98;101257.84;5247564;28;20343;-73
2023/08/20 11:25:43;;;;;;;3.63;1.60;;;;;;;28.65;64.47;101254.38;5247676;28;20033;-73
2023/08/20 11:28:13;;;;;;;3.08;1.50;;;;;;;28.88;65.24;101255.63;5241183;28;20435;-72
2023/08/20 11:30:46;;;;;;;3.80;1.30;;;;;;;28.52;65.30;101259.31;5246099;28;20052;-73
2023/08/20 11:33:17;;;;;;;2.47;1.40;;;;;;;28.60;66.40;101255.81;5225864;28;20031;-72
2023/08/20 11:35:48;;;;;;;3.25;1.27;;;;;;;28.99;65.49;101261.63;5241257;28;20048;-70
2023/08/20 11:38:21;;;;;;;3.22;1.30;;;;;;;28.48;65.47;101252.50;5246609;28;20031;-73